createdAt,value
2017-05-31T00:01:34.466Z,84.50
2017-05-31T00:04:02.831Z,84.30
2017-05-31T00:06:31.550Z,84.30
2017-05-31T00:08:59.914Z,84.40
2017-05-31T00:11:28.231Z,84.30
2017-05-31T00:13:56.992Z,84.40
2017-05-31T00:16:25.348Z,84.40
2017-05-31T00:18:53.674Z,84.60
2017-05-31T00:21:22.313Z,84.50
2017-05-31T00:23:50.705Z,84.30
2017-05-31T00:26:19.031Z,84.30
2017-05-31T00:28:46.846Z,84.30
2017-05-31T00:31:15.205Z,84.20
2017-05-31T00:33:43.557Z,84.00
2017-05-31T00:36:12.140Z,84.00
2017-05-31T00:38:40.462Z,83.80
2017-05-31T00:41:08.859Z,83.90
2017-05-31T00:43:37.600Z,83.90
2017-05-31T00:46:05.917Z,84.00
2017-05-31T00:48:33.467Z,83.80
2017-05-31T00:51:02.187Z,83.80
2017-05-31T00:53:30.539Z,83.80
2017-05-31T00:55:58.875Z,83.80
2017-05-31T00:58:27.452Z,84.00
2017-05-31T01:00:55.808Z,84.00
2017-05-31T01:03:24.140Z,84.10
2017-05-31T01:05:52.800Z,84.00
2017-05-31T01:08:21.148Z,84.10
2017-05-31T01:10:48.736Z,84.10
2017-05-31T01:13:16.658Z,84.10
2017-05-31T01:15:44.258Z,84.30
2017-05-31T01:18:12.620Z,84.50
2017-05-31T01:20:41.238Z,84.60
2017-05-31T01:23:09.712Z,84.70
2017-05-31T01:25:38.062Z,84.80
2017-05-31T01:28:06.718Z,84.70
2017-05-31T01:30:34.307Z,84.70
2017-05-31T01:33:02.720Z,85.00
2017-05-31T01:35:31.353Z,85.00
2017-05-31T01:37:59.837Z,85.10
2017-05-31T01:40:28.160Z,85.10
2017-05-31T01:42:56.829Z,85.20
2017-05-31T01:45:25.177Z,85.20
2017-05-31T01:47:53.514Z,85.30
2017-05-31T01:50:22.254Z,85.30
2017-05-31T01:52:49.815Z,85.40
2017-05-31T01:55:18.124Z,85.40
2017-05-31T01:57:46.901Z,85.30
2017-05-31T02:00:15.773Z,85.40
2017-05-31T02:02:44.118Z,85.50
2017-05-31T02:05:12.710Z,85.60
2017-05-31T02:07:41.087Z,85.50
2017-05-31T02:10:09.456Z,85.70
2017-05-31T02:12:38.137Z,85.70
2017-05-31T02:15:05.727Z,85.70
2017-05-31T02:17:34.058Z,85.70
2017-05-31T02:20:02.707Z,85.60
2017-05-31T02:22:31.037Z,85.60
2017-05-31T02:24:58.594Z,85.70
2017-05-31T02:27:27.339Z,85.60
2017-05-31T02:29:55.658Z,85.70
2017-05-31T02:32:24.062Z,85.70
2017-05-31T02:34:51.873Z,85.70
2017-05-31T02:37:20.222Z,85.80
2017-05-31T02:39:48.612Z,85.70
2017-05-31T02:42:17.445Z,85.70
2017-05-31T02:44:45.031Z,85.80
2017-05-31T02:47:13.416Z,85.70
2017-05-31T02:49:41.999Z,85.80
2017-05-31T02:52:10.365Z,85.90
2017-05-31T02:54:38.727Z,85.70
2017-05-31T02:57:07.347Z,85.70
2017-05-31T02:59:35.700Z,85.60
2017-05-31T03:02:04.049Z,85.60
2017-05-31T03:04:32.747Z,85.50
2017-05-31T03:07:01.082Z,85.50
2017-05-31T03:09:29.421Z,85.50
2017-05-31T03:11:58.027Z,85.50
2017-05-31T03:14:26.366Z,85.30
2017-05-31T03:16:54.754Z,85.90
2017-05-31T03:19:22.708Z,85.20
2017-05-31T03:21:50.292Z,85.20
2017-05-31T03:24:18.664Z,85.20
2017-05-31T03:26:47.321Z,85.10
2017-05-31T03:29:14.931Z,85.10
2017-05-31T03:31:42.510Z,85.00
2017-05-31T03:34:11.140Z,84.90
2017-05-31T03:36:39.508Z,85.00
2017-05-31T03:39:07.848Z,85.00
2017-05-31T03:41:36.501Z,84.80
2017-05-31T03:44:04.854Z,84.70
2017-05-31T03:46:33.278Z,84.70
2017-05-31T03:49:01.874Z,84.50
2017-05-31T03:51:30.221Z,84.50
2017-05-31T03:53:58.557Z,84.40
2017-05-31T03:56:27.166Z,84.40
2017-05-31T03:58:54.742Z,84.40
2017-05-31T04:01:23.661Z,84.30
2017-05-31T04:03:52.423Z,83.90
2017-05-31T04:06:20.774Z,83.90
2017-05-31T04:08:49.088Z,83.80
2017-05-31T04:11:17.851Z,83.80
2017-05-31T04:13:46.221Z,83.60
2017-05-31T04:16:14.559Z,83.60
2017-05-31T04:18:43.149Z,83.40
2017-05-31T04:21:10.801Z,83.40
2017-05-31T04:23:38.391Z,83.40
2017-05-31T04:26:06.856Z,82.90
2017-05-31T04:28:35.190Z,82.80
2017-05-31T04:31:03.964Z,82.80
2017-05-31T04:33:32.372Z,82.80
2017-05-31T04:36:00.803Z,82.40
2017-05-31T04:38:29.426Z,82.40
2017-05-31T04:40:57.808Z,82.30
2017-05-31T04:43:26.132Z,82.10
2017-05-31T04:45:54.837Z,82.00
2017-05-31T04:48:22.409Z,82.00
2017-05-31T04:50:52.424Z,81.70
2017-05-31T04:53:21.205Z,81.40
2017-05-31T04:55:49.568Z,80.80
2017-05-31T04:58:17.928Z,80.30
2017-05-31T05:00:45.845Z,80.40
2017-05-31T05:03:13.436Z,79.90
2017-05-31T05:05:41.817Z,79.00
2017-05-31T05:08:10.485Z,78.90
2017-05-31T05:10:38.869Z,78.80
2017-05-31T05:13:07.257Z,78.50
2017-05-31T05:15:35.841Z,77.70
2017-05-31T05:18:04.192Z,77.30
2017-05-31T05:20:31.824Z,77.30
2017-05-31T05:23:00.450Z,76.70
2017-05-31T05:25:28.799Z,76.10
2017-05-31T05:27:57.209Z,75.60
2017-05-31T05:30:25.010Z,75.70
2017-05-31T05:32:52.567Z,75.40
2017-05-31T05:35:20.188Z,75.40
2017-05-31T05:37:48.976Z,74.10
2017-05-31T05:40:17.305Z,73.90
2017-05-31T05:42:45.647Z,74.00
2017-05-31T05:45:14.240Z,73.40
2017-05-31T05:47:42.570Z,73.50
2017-05-31T05:50:10.912Z,73.30
2017-05-31T05:52:38.842Z,73.30
2017-05-31T05:55:07.207Z,71.90
2017-05-31T05:57:35.555Z,70.50
2017-05-31T06:00:04.187Z,70.00
2017-05-31T06:02:32.532Z,69.80
2017-05-31T06:05:00.844Z,69.60
2017-05-31T06:07:29.406Z,69.10
2017-05-31T06:09:57.822Z,68.50
2017-05-31T06:12:26.163Z,68.20
2017-05-31T06:14:54.883Z,68.00
2017-05-31T06:17:23.370Z,66.90
2017-05-31T06:19:51.761Z,66.30
2017-05-31T06:22:20.410Z,66.00
2017-05-31T06:24:49.026Z,66.10
2017-05-31T06:27:17.956Z,66.10
2017-05-31T06:29:46.688Z,65.80
2017-05-31T06:32:15.068Z,65.60
2017-05-31T06:34:43.400Z,66.30
2017-05-31T06:37:11.990Z,64.90
2017-05-31T06:39:40.354Z,64.40
2017-05-31T06:42:08.715Z,64.60
2017-05-31T06:44:37.293Z,64.40
2017-05-31T06:47:05.648Z,64.20
2017-05-31T06:49:33.984Z,64.00
2017-05-31T06:52:02.594Z,64.10
2017-05-31T06:54:30.187Z,64.10
2017-05-31T06:56:59.493Z,63.50
2017-05-31T06:59:28.174Z,63.00
2017-05-31T07:01:56.526Z,63.00
2017-05-31T07:04:24.856Z,62.90
2017-05-31T07:06:53.425Z,63.10
2017-05-31T07:09:21.762Z,62.60
2017-05-31T07:11:50.113Z,62.60
2017-05-31T07:14:18.750Z,62.50
2017-05-31T07:16:47.151Z,62.40
2017-05-31T07:19:15.506Z,62.30
2017-05-31T07:21:44.200Z,62.20
2017-05-31T07:24:12.548Z,62.00
2017-05-31T07:26:40.891Z,62.30
2017-05-31T07:29:08.778Z,62.30
2017-05-31T07:31:36.374Z,62.20
2017-05-31T07:34:04.705Z,62.40
2017-05-31T07:36:33.274Z,62.60
2017-05-31T07:39:00.813Z,62.60
2017-05-31T07:41:29.145Z,61.90
2017-05-31T07:43:57.775Z,61.80
2017-05-31T07:46:26.155Z,61.60
2017-05-31T07:48:54.520Z,61.50
2017-05-31T07:51:23.322Z,61.40
2017-05-31T07:53:51.717Z,61.10
2017-05-31T07:56:20.061Z,61.20
2017-05-31T07:58:47.903Z,61.30
2017-05-31T08:01:16.321Z,61.00
2017-05-31T08:03:44.669Z,60.70
2017-05-31T08:06:13.331Z,60.50
2017-05-31T08:08:41.674Z,60.70
2017-05-31T08:11:10.049Z,60.50
2017-05-31T08:13:38.694Z,60.30
2017-05-31T08:16:07.072Z,60.40
2017-05-31T08:18:34.697Z,60.40
2017-05-31T08:21:03.457Z,59.90
2017-05-31T08:23:31.784Z,59.50
2017-05-31T08:26:00.138Z,59.40
2017-05-31T08:28:28.788Z,59.30
2017-05-31T08:30:57.181Z,59.40
2017-05-31T08:33:25.548Z,59.70
2017-05-31T08:35:54.263Z,59.20
2017-05-31T08:38:22.614Z,59.30
2017-05-31T08:40:50.195Z,59.40
2017-05-31T08:43:18.806Z,59.40
2017-05-31T08:45:46.417Z,59.50
2017-05-31T08:48:14.816Z,59.80
2017-05-31T08:50:43.406Z,60.00
2017-05-31T08:53:11.008Z,60.00
2017-05-31T08:55:39.348Z,60.20
2017-05-31T08:58:08.139Z,60.90
2017-05-31T09:00:36.471Z,60.30
2017-05-31T09:03:04.813Z,59.30
2017-05-31T09:05:33.469Z,58.70
2017-05-31T09:08:01.804Z,58.60
2017-05-31T09:10:30.229Z,59.50
2017-05-31T09:12:58.824Z,59.00
2017-05-31T09:15:27.156Z,59.80
2017-05-31T09:17:55.552Z,59.00
2017-05-31T09:20:24.133Z,58.50
2017-05-31T09:22:52.456Z,57.90
2017-05-31T09:25:20.788Z,58.20
2017-05-31T09:27:49.349Z,56.70
2017-05-31T09:30:17.715Z,56.20
2017-05-31T09:32:46.049Z,56.10
2017-05-31T09:35:14.655Z,55.90
2017-05-31T09:37:43.006Z,55.30
2017-05-31T09:40:10.590Z,55.40
2017-05-31T09:42:39.359Z,55.20
2017-05-31T09:45:07.666Z,54.90
2017-05-31T09:47:36.072Z,55.20
2017-05-31T09:50:03.917Z,55.20
2017-05-31T09:52:32.252Z,54.90
2017-05-31T09:55:00.628Z,54.60
2017-05-31T09:57:29.265Z,54.00
2017-05-31T09:59:57.697Z,53.90
2017-05-31T10:02:26.018Z,53.60
2017-05-31T10:04:54.605Z,53.70
2017-05-31T10:07:22.936Z,53.60
2017-05-31T10:09:51.307Z,53.40
2017-05-31T10:12:19.970Z,53.00
2017-05-31T10:14:48.347Z,52.80
2017-05-31T10:17:16.706Z,52.20
2017-05-31T10:19:45.481Z,52.20
2017-05-31T10:22:13.044Z,52.20
2017-05-31T10:24:41.406Z,51.90
2017-05-31T10:27:10.139Z,51.30
2017-05-31T10:29:38.517Z,51.00
2017-05-31T10:32:06.081Z,51.00
2017-05-31T10:34:34.740Z,50.10
2017-05-31T10:37:03.142Z,49.50
2017-05-31T10:39:31.462Z,49.40
2017-05-31T10:42:00.018Z,48.90
2017-05-31T10:44:28.359Z,48.40
2017-05-31T10:46:56.689Z,48.70
2017-05-31T10:49:25.265Z,48.30
2017-05-31T10:51:53.581Z,48.20
2017-05-31T10:54:21.919Z,48.50
2017-05-31T10:56:50.533Z,48.50
2017-05-31T10:59:18.114Z,48.40
2017-05-31T11:01:45.714Z,49.00
2017-05-31T11:04:14.375Z,48.90
2017-05-31T11:06:42.735Z,48.40
2017-05-31T11:09:11.098Z,48.50
2017-05-31T11:11:39.679Z,48.20
2017-05-31T11:14:08.007Z,48.00
2017-05-31T11:16:36.317Z,47.50
2017-05-31T11:19:04.881Z,47.50
2017-05-31T11:21:33.214Z,48.10
2017-05-31T11:24:01.543Z,47.70
2017-05-31T11:26:30.177Z,47.90
2017-05-31T11:28:58.540Z,47.60
2017-05-31T11:31:26.889Z,47.40
2017-05-31T11:33:55.501Z,47.60
2017-05-31T11:36:23.851Z,47.90
2017-05-31T11:38:52.203Z,48.20
2017-05-31T11:41:21.770Z,47.50
2017-05-31T11:43:49.346Z,47.40
2017-05-31T11:46:17.679Z,46.00
2017-05-31T11:48:46.311Z,46.30
2017-05-31T11:51:13.883Z,45.60
2017-05-31T11:53:41.445Z,45.30
2017-05-31T11:56:10.024Z,44.30
2017-05-31T11:58:38.338Z,44.10
2017-05-31T12:01:05.911Z,44.10
2017-05-31T12:03:33.709Z,43.90
2017-05-31T12:06:02.077Z,42.80
2017-05-31T12:08:30.392Z,42.30
2017-05-31T12:10:58.255Z,42.30
2017-05-31T12:13:26.625Z,40.40
2017-05-31T12:15:54.988Z,39.80
2017-05-31T12:18:22.974Z,39.60
2017-05-31T12:20:52.666Z,38.30
2017-05-31T12:23:20.316Z,38.20
2017-05-31T12:25:50.232Z,37.70
2017-05-31T12:28:19.820Z,37.60
2017-05-31T12:30:48.224Z,37.70
2017-05-31T12:33:16.988Z,38.10
2017-05-31T12:35:45.322Z,39.30
2017-05-31T12:38:13.760Z,39.70
2017-05-31T12:40:42.663Z,39.70
2017-05-31T12:43:11.824Z,41.00
2017-05-31T12:45:40.023Z,41.30
2017-05-31T12:48:08.705Z,41.50
2017-05-31T12:50:37.071Z,42.00
2017-05-31T12:53:04.638Z,42.00
2017-05-31T12:55:33.205Z,42.70
2017-05-31T12:58:02.655Z,43.70
2017-05-31T13:00:30.995Z,42.50
2017-05-31T13:02:59.663Z,42.30
2017-05-31T13:05:28.728Z,42.30
2017-05-31T13:07:57.402Z,42.40
2017-05-31T13:10:25.939Z,42.20
2017-05-31T13:12:54.249Z,41.90
2017-05-31T13:15:22.570Z,41.10
2017-05-31T13:17:51.126Z,40.20
2017-05-31T13:20:19.454Z,39.50
2017-05-31T13:22:47.764Z,39.80
2017-05-31T13:25:16.518Z,39.30
2017-05-31T13:27:44.824Z,38.40
2017-05-31T13:30:13.160Z,38.50
2017-05-31T13:32:41.830Z,38.80
2017-05-31T13:35:10.334Z,38.30
2017-05-31T13:37:39.557Z,38.90
2017-05-31T13:40:08.130Z,37.90
2017-05-31T13:42:36.452Z,37.90
2017-05-31T13:45:04.760Z,37.60
2017-05-31T13:47:33.397Z,37.50
2017-05-31T13:50:02.624Z,37.60
2017-05-31T13:52:30.931Z,38.20
2017-05-31T13:54:59.528Z,38.60
2017-05-31T13:57:27.845Z,38.50
2017-05-31T13:59:56.168Z,38.70
2017-05-31T14:02:24.746Z,39.00
2017-05-31T14:04:53.080Z,39.50
2017-05-31T14:07:21.402Z,39.80
2017-05-31T14:09:49.983Z,40.30
2017-05-31T14:12:18.313Z,40.60
2017-05-31T14:14:46.662Z,41.00
2017-05-31T14:17:15.224Z,41.50
2017-05-31T14:19:43.570Z,42.20
2017-05-31T14:22:11.892Z,42.60
2017-05-31T14:24:40.457Z,43.00
2017-05-31T14:27:08.831Z,42.20
2017-05-31T14:29:37.134Z,41.60
2017-05-31T14:32:05.934Z,41.10
2017-05-31T14:34:34.264Z,40.90
2017-05-31T14:37:02.579Z,40.40
2017-05-31T14:39:31.308Z,39.50
2017-05-31T14:41:59.657Z,38.70
2017-05-31T14:44:27.205Z,38.60
2017-05-31T14:46:55.922Z,36.70
2017-05-31T14:49:24.243Z,35.60
2017-05-31T14:51:52.588Z,35.00
2017-05-31T14:54:21.246Z,34.00
2017-05-31T14:56:49.574Z,33.50
2017-05-31T14:59:17.127Z,33.40
2017-05-31T15:01:45.966Z,32.80
2017-05-31T15:04:14.316Z,32.30
2017-05-31T15:06:42.664Z,32.50
2017-05-31T15:09:11.225Z,32.40
2017-05-31T15:11:39.594Z,31.00
2017-05-31T15:14:07.994Z,30.00
2017-05-31T15:16:36.600Z,30.40
2017-05-31T15:19:04.920Z,30.60
2017-05-31T15:21:33.271Z,30.60
2017-05-31T15:24:01.846Z,30.70
2017-05-31T15:26:30.204Z,29.50
2017-05-31T15:28:58.602Z,29.20
2017-05-31T15:31:27.171Z,28.90
2017-05-31T15:33:54.774Z,28.80
2017-05-31T15:36:23.121Z,29.40
2017-05-31T15:38:51.773Z,28.80
2017-05-31T15:41:19.392Z,28.80
2017-05-31T15:43:47.817Z,28.30
2017-05-31T15:46:16.428Z,28.20
2017-05-31T15:48:43.992Z,28.20
2017-05-31T15:51:11.607Z,28.40
2017-05-31T15:53:39.414Z,28.50
2017-05-31T15:56:07.749Z,28.60
2017-05-31T15:58:36.070Z,28.50
2017-05-31T16:01:03.904Z,28.50
2017-05-31T16:03:32.221Z,28.30
2017-05-31T16:06:00.570Z,28.20
2017-05-31T16:08:29.230Z,28.30
2017-05-31T16:10:57.603Z,28.20
2017-05-31T16:13:25.959Z,28.60
2017-05-31T16:15:54.523Z,28.60
2017-05-31T16:18:22.859Z,28.70
2017-05-31T16:20:51.172Z,28.90
2017-05-31T16:23:19.830Z,29.50
2017-05-31T16:25:48.149Z,29.00
2017-05-31T16:28:16.479Z,29.00
2017-05-31T16:30:45.021Z,28.90
2017-05-31T16:33:13.354Z,29.00
2017-05-31T16:35:41.666Z,29.20
2017-05-31T16:38:10.255Z,29.20
2017-05-31T16:40:38.605Z,29.20
2017-05-31T16:43:06.194Z,29.20
2017-05-31T16:45:34.779Z,29.30
2017-05-31T16:48:03.139Z,29.40
2017-05-31T16:50:31.532Z,29.40
2017-05-31T16:53:00.283Z,29.60
2017-05-31T16:55:29.523Z,29.60
2017-05-31T16:57:58.064Z,29.60
2017-05-31T17:00:26.747Z,29.70
2017-05-31T17:02:55.134Z,29.80
2017-05-31T17:05:23.475Z,29.90
2017-05-31T17:07:52.218Z,29.80
2017-05-31T17:10:20.536Z,29.50
2017-05-31T17:12:48.901Z,29.90
2017-05-31T17:15:17.469Z,30.00
2017-05-31T17:17:45.865Z,30.20
2017-05-31T17:20:15.192Z,30.00
2017-05-31T17:22:44.308Z,30.00
2017-05-31T17:25:12.769Z,30.20
2017-05-31T17:27:41.093Z,30.20
2017-05-31T17:30:09.656Z,29.80
2017-05-31T17:32:37.295Z,29.80
2017-05-31T17:35:05.736Z,29.30
2017-05-31T17:37:34.309Z,29.40
2017-05-31T17:40:02.658Z,30.20
2017-05-31T17:42:30.996Z,30.00
2017-05-31T17:44:59.730Z,30.10
2017-05-31T17:47:28.141Z,30.60
2017-05-31T17:49:56.990Z,30.80
2017-05-31T17:52:25.728Z,31.10
2017-05-31T17:54:53.500Z,31.20
2017-05-31T17:57:21.856Z,31.60
2017-05-31T17:59:50.835Z,31.90
2017-05-31T18:02:19.271Z,31.90
2017-05-31T18:04:55.145Z,32.30
2017-05-31T18:07:23.645Z,32.80
2017-05-31T18:09:52.264Z,33.10
2017-05-31T18:12:19.910Z,33.10
2017-05-31T18:32:36.501Z,37.40
2017-05-31T18:35:05.588Z,37.90
2017-05-31T18:37:46.558Z,37.90
2017-05-31T18:40:20.644Z,38.30
2017-05-31T18:42:54.338Z,38.70
2017-05-31T18:45:31.044Z,39.50
2017-05-31T18:48:05.652Z,39.80
2017-05-31T18:50:33.688Z,40.10
2017-05-31T18:53:02.063Z,40.30
2017-05-31T18:55:30.495Z,40.60
2017-05-31T18:57:59.382Z,40.80
2017-05-31T19:00:26.996Z,41.00
2017-05-31T19:03:02.121Z,41.60
2017-05-31T19:05:31.519Z,41.80
2017-05-31T19:08:00.197Z,42.10
2017-05-31T19:10:28.398Z,42.30
2017-05-31T19:12:57.054Z,42.40
2017-05-31T19:18:01.702Z,43.30
2017-05-31T19:20:31.537Z,43.70
2017-05-31T19:23:00.327Z,44.00
2017-05-31T19:25:28.203Z,43.90
2017-05-31T19:27:56.931Z,44.50
2017-05-31T19:30:33.986Z,44.70
2017-05-31T19:38:49.491Z,45.10
2017-05-31T19:44:01.578Z,45.70
2017-05-31T19:46:42.464Z,46.30
2017-05-31T19:52:21.641Z,46.80
2017-05-31T20:00:50.868Z,47.40
2017-05-31T20:03:23.641Z,47.60
2017-05-31T20:05:53.405Z,47.70
2017-05-31T20:08:25.162Z,47.90
2017-05-31T20:11:02.068Z,48.20
2017-05-31T20:13:31.024Z,48.40
2017-05-31T20:16:00.979Z,48.60
2017-05-31T20:24:19.375Z,49.10
2017-05-31T20:26:50.814Z,49.30
2017-05-31T20:29:28.167Z,49.50
2017-05-31T20:34:43.353Z,50.00
2017-05-31T20:37:20.255Z,50.30
2017-05-31T20:45:41.257Z,50.80
2017-05-31T20:48:19.594Z,50.90
2017-05-31T20:50:51.093Z,51.20
2017-05-31T20:53:36.086Z,51.40
2017-05-31T21:04:12.177Z,52.10
2017-05-31T21:06:55.798Z,52.30
2017-05-31T21:09:28.515Z,53.20
2017-05-31T21:14:48.118Z,53.10
2017-05-31T21:17:43.538Z,53.20
2017-05-31T21:20:18.127Z,53.30
2017-05-31T21:22:50.538Z,53.40
2017-05-31T21:28:06.352Z,53.80
2017-05-31T21:30:54.170Z,53.90
2017-05-31T21:33:36.973Z,53.90
2017-05-31T21:36:13.647Z,54.00
2017-05-31T21:38:53.033Z,54.30
2017-05-31T21:41:31.057Z,54.20
2017-05-31T21:47:03.230Z,54.40
2017-05-31T21:49:37.852Z,54.60
2017-05-31T21:52:15.107Z,54.80
2017-05-31T21:54:57.909Z,54.90
2017-05-31T21:57:39.610Z,55.00
2017-05-31T22:00:12.878Z,55.10
2017-05-31T22:02:42.932Z,55.50
2017-05-31T22:05:15.215Z,55.40
2017-05-31T22:07:47.860Z,55.50
2017-05-31T22:10:20.181Z,55.70
2017-05-31T22:12:58.066Z,55.80
2017-05-31T22:15:27.776Z,55.90
2017-05-31T22:18:01.177Z,56.10
2017-05-31T22:20:29.550Z,56.20
2017-05-31T22:22:57.883Z,56.30
2017-05-31T22:25:26.521Z,56.40
2017-05-31T22:27:54.861Z,56.60
2017-05-31T22:30:23.209Z,56.90
2017-05-31T22:32:52.007Z,57.00
2017-05-31T22:35:20.379Z,57.20
2017-05-31T22:37:48.722Z,57.30
2017-05-31T22:40:17.461Z,57.50
2017-05-31T22:42:45.781Z,57.90
2017-05-31T22:45:17.480Z,58.00
2017-05-31T22:47:45.831Z,58.00
2017-05-31T22:50:14.168Z,58.20
2017-05-31T22:52:42.975Z,58.30
2017-05-31T22:55:11.306Z,58.40
2017-05-31T22:57:39.711Z,58.60
2017-05-31T23:00:08.506Z,59.40
2017-05-31T23:02:36.949Z,59.00
2017-05-31T23:05:04.644Z,59.00
2017-05-31T23:07:33.396Z,59.30
2017-05-31T23:10:01.816Z,59.60
2017-05-31T23:12:30.229Z,59.60
2017-05-31T23:14:59.028Z,59.70
2017-05-31T23:17:27.401Z,59.80
2017-05-31T23:19:55.747Z,60.20
2017-05-31T23:22:24.393Z,60.40
2017-05-31T23:24:52.733Z,60.60
2017-05-31T23:27:21.150Z,60.70
2017-05-31T23:29:49.118Z,60.80
2017-05-31T23:32:17.463Z,60.70
2017-05-31T23:34:45.833Z,60.70
2017-05-31T23:37:14.720Z,60.70
2017-05-31T23:39:43.086Z,60.70
2017-05-31T23:42:11.446Z,60.50
2017-05-31T23:44:40.269Z,60.50
2017-05-31T23:47:08.647Z,60.50
2017-05-31T23:49:37.047Z,60.50
2017-05-31T23:52:05.832Z,60.80
2017-05-31T23:54:33.443Z,60.70
2017-05-31T23:57:01.756Z,60.50
2017-05-31T23:59:30.382Z,60.30
